Time;durP1;ratioP1;P1;durP2;ratioP2;P2;SDS_P1;SDS_P2;PMS_P1;PMS_P2;Temp;Humidity;BMP_temperature;BMP_pressure;BME280_temperature;BME280_humidity;BME280_pressure;Samples;Min_cycle;Max_cycle;Signal;HPM_P1;HPM_P2
2023/08/06 00:01:46;;;;;;;4.63;3.80;;;;;;;15.05;100.00;95710.97;4989300;28;101992;-61
2023/08/06 00:04:13;;;;;;;4.80;4.40;;;;;;;15.06;100.00;95718.72;4990354;28;103484;-61
2023/08/06 00:06:42;;;;;;;4.97;4.53;;;;;;;15.08;100.00;95705.00;4988857;28;103918;-61
2023/08/06 00:09:09;;;;;;;4.67;4.27;;;;;;;15.07;100.00;95719.50;4989117;28;101737;-60
2023/08/06 00:11:35;;;;;;;5.07;4.67;;;;;;;15.06;100.00;95720.59;4990393;28;103635;-61
2023/08/06 00:14:03;;;;;;;6.10;4.70;;;;;;;15.07;100.00;95714.13;4989914;28;103017;-61
2023/08/06 00:16:29;;;;;;;5.30;4.67;;;;;;;15.02;100.00;95716.91;4989315;28;101998;-60
2023/08/06 00:18:56;;;;;;;4.93;4.50;;;;;;;14.96;100.00;95718.06;4990472;28;102737;-60
2023/08/06 00:21:23;;;;;;;4.80;4.40;;;;;;;14.92;100.00;95719.75;4992991;28;103062;-60
2023/08/06 00:23:52;;;;;;;5.10;4.60;;;;;;;14.76;100.00;95724.56;4988747;28;105442;-60
2023/08/06 00:26:19;;;;;;;6.10;5.60;;;;;;;14.70;100.00;95715.03;4989730;28;101969;-60
2023/08/06 00:28:46;;;;;;;5.50;5.00;;;;;;;14.75;100.00;95717.63;4990400;28;101809;-60
2023/08/06 00:31:13;;;;;;;6.47;5.87;;;;;;;14.81;100.00;95707.63;4989601;28;102504;-60
2023/08/06 00:33:40;;;;;;;6.00;5.40;;;;;;;14.85;100.00;95708.63;4989901;28;102495;-60
2023/08/06 00:36:06;;;;;;;6.60;6.00;;;;;;;14.87;100.00;95707.25;4988744;28;101957;-60
2023/08/06 00:38:33;;;;;;;6.60;5.67;;;;;;;14.91;100.00;95702.91;4988655;28;106032;-60
2023/08/06 00:41:02;;;;;;;7.50;6.13;;;;;;;14.90;100.00;95703.19;4988056;28;106003;-59
2023/08/06 00:43:29;;;;;;;6.13;5.40;;;;;;;14.94;100.00;95698.84;4992358;28;101943;-60
2023/08/06 00:45:59;;;;;;;6.07;5.57;;;;;;;14.97;100.00;95706.28;4988074;28;104529;-59
2023/08/06 00:48:33;;;;;;;6.13;5.30;;;;;;;14.97;100.00;95701.72;4973504;28;101997;-59
2023/08/06 00:51:01;;;;;;;5.33;4.83;;;;;;;14.99;100.00;95702.22;4988640;28;105283;-59
2023/08/06 00:53:28;;;;;;;6.37;5.87;;;;;;;14.98;100.00;95711.34;4989399;28;102845;-60
2023/08/06 00:55:55;;;;;;;6.20;5.60;;;;;;;14.87;100.00;95698.44;4988528;28;102063;-59
2023/08/06 00:58:26;;;;;;;6.33;5.70;;;;;;;14.82;100.00;95714.56;4988595;28;105430;-60
2023/08/06 01:00:56;;;;;;;7.00;6.30;;;;;;;14.67;100.00;95709.47;4988129;28;104309;-61
2023/08/06 01:03:25;;;;;;;6.73;6.23;;;;;;;14.70;100.00;95724.91;4989897;28;101980;-60
2023/08/06 01:05:55;;;;;;;6.50;6.00;;;;;;;14.76;100.00;95718.41;4992250;28;101718;-60
2023/08/06 01:08:33;;;;;;;7.60;6.90;;;;;;;14.60;100.00;95746.50;4988231;28;102138;-60
2023/08/06 01:11:11;;;;;;;7.50;6.90;;;;;;;14.64;100.00;95742.94;4988602;28;105503;-60
2023/08/06 01:13:44;;;;;;;7.50;6.80;;;;;;;14.62;100.00;95745.13;4987876;28;105737;-60
2023/08/06 01:16:12;;;;;;;6.57;6.00;;;;;;;14.57;100.00;95755.09;4988233;28;102202;-60
2023/08/06 01:18:41;;;;;;;6.13;5.50;;;;;;;14.62;100.00;95738.97;4988306;28;105355;-60
2023/08/06 01:21:09;;;;;;;5.60;4.73;;;;;;;14.59;100.00;95742.22;4988774;28;103136;-60
2023/08/06 01:23:36;;;;;;;4.50;4.20;;;;;;;14.64;100.00;95740.28;4988074;28;101903;-60
2023/08/06 01:26:11;;;;;;;4.03;3.73;;;;;;;14.67;100.00;95736.22;4988203;28;105681;-60
2023/08/06 01:28:47;;;;;;;3.87;3.63;;;;;;;14.67;100.00;95741.56;4992660;28;102765;-60
2023/08/06 01:31:20;;;;;;;3.63;3.33;;;;;;;14.71;100.00;95731.88;4988229;28;105518;-60
2023/08/06 01:33:49;;;;;;;3.97;3.67;;;;;;;14.73;100.00;95735.06;4987454;28;105708;-60
2023/08/06 01:36:20;;;;;;;3.30;3.10;;;;;;;14.77;100.00;95733.41;4989006;28;102034;-60
2023/08/06 01:38:47;;;;;;;3.80;3.50;;;;;;;14.73;100.00;95738.53;4988063;28;105838;-60
2023/08/06 01:41:14;;;;;;;4.47;3.60;;;;;;;14.72;100.00;95725.44;4987964;28;106071;-60
2023/08/06 01:43:41;;;;;;;3.80;3.50;;;;;;;14.69;100.00;95734.03;4991397;28;101816;-60
2023/08/06 01:46:08;;;;;;;4.00;3.60;;;;;;;14.67;100.00;95730.88;4991582;28;105902;-60
2023/08/06 01:48:35;;;;;;;3.63;3.43;;;;;;;14.63;100.00;95730.66;4990911;28;105869;-60
2023/08/06 01:51:01;;;;;;;3.60;3.40;;;;;;;14.64;100.00;95716.19;4994336;28;101737;-60
2023/08/06 01:53:30;;;;;;;3.37;3.17;;;;;;;14.63;100.00;95711.13;4990705;28;105853;-60
2023/08/06 01:55:57;;;;;;;3.50;3.10;;;;;;;14.62;100.00;95704.19;4992728;28;102107;-61
2023/08/06 01:58:24;;;;;;;3.30;3.10;;;;;;;14.53;100.00;95693.34;4991403;28;105302;-61
2023/08/06 02:00:51;;;;;;;4.20;3.20;;;;;;;14.56;100.00;95697.34;4990415;28;105295;-61
2023/08/06 02:03:18;;;;;;;3.67;3.37;;;;;;;14.53;100.00;95698.72;4992511;28;102280;-61
2023/08/06 02:05:45;;;;;;;3.83;3.40;;;;;;;14.56;100.00;95700.00;4991115;28;105346;-61
2023/08/06 02:08:12;;;;;;;4.20;3.30;;;;;;;14.47;100.00;95704.41;4990526;28;103915;-61
2023/08/06 02:10:41;;;;;;;3.80;3.50;;;;;;;14.51;100.00;95706.22;4994660;28;102002;-61
2023/08/06 02:13:11;;;;;;;3.50;3.27;;;;;;;14.57;100.00;95705.06;4990512;28;105809;-61
2023/08/06 02:15:43;;;;;;;3.20;3.00;;;;;;;14.59;100.00;95713.59;4991087;28;101792;-61
2023/08/06 02:18:10;;;;;;;3.50;3.20;;;;;;;14.60;100.00;95698.34;4991189;28;103604;-61
2023/08/06 02:20:37;;;;;;;3.83;3.50;;;;;;;14.62;100.00;95696.16;4989648;28;105405;-61
2023/08/06 02:23:04;;;;;;;3.50;2.93;;;;;;;14.61;100.00;95694.56;4990923;28;101947;-61
2023/08/06 02:25:31;;;;;;;3.83;3.53;;;;;;;14.61;100.00;95690.00;4990810;28;105265;-61
2023/08/06 02:28:01;;;;;;;3.63;3.37;;;;;;;14.60;100.00;95691.09;4990396;28;104415;-60
2023/08/06 02:30:28;;;;;;;3.50;3.20;;;;;;;14.56;100.00;95686.63;4990746;28;101957;-60
2023/08/06 02:32:55;;;;;;;4.07;3.60;;;;;;;14.53;100.00;95679.19;4994978;28;102683;-60
2023/08/06 02:35:23;;;;;;;3.30;3.10;;;;;;;14.44;100.00;95675.59;4992165;28;102092;-60
2023/08/06 02:37:50;;;;;;;3.80;3.40;;;;;;;14.44;100.00;95678.25;4991677;28;102418;-60
2023/08/06 02:40:17;;;;;;;3.77;3.50;;;;;;;14.42;100.00;95672.41;4989969;28;105445;-60
2023/08/06 02:42:44;;;;;;;3.50;3.20;;;;;;;14.45;100.00;95679.84;4990476;28;102218;-60
2023/08/06 02:45:12;;;;;;;4.00;3.20;;;;;;;14.36;100.00;95671.69;4990714;28;104488;-60
2023/08/06 02:47:40;;;;;;;2.60;2.50;;;;;;;14.32;100.00;95675.22;4989937;28;105470;-60
2023/08/06 02:50:07;;;;;;;2.93;2.73;;;;;;;14.40;100.00;95651.28;4990533;28;101955;-61
2023/08/06 02:52:34;;;;;;;2.57;2.37;;;;;;;14.37;100.00;95651.88;4990378;28;105776;-62
2023/08/06 02:55:01;;;;;;;2.20;2.10;;;;;;;14.35;100.00;95653.25;4992928;28;105298;-61
2023/08/06 02:57:31;;;;;;;2.40;2.20;;;;;;;14.35;100.00;95645.22;4990475;28;105018;-61
2023/08/06 02:59:58;;;;;;;2.73;1.90;;;;;;;14.35;100.00;95635.34;4991262;28;102581;-60
2023/08/06 03:02:26;;;;;;;2.23;2.10;;;;;;;14.29;100.00;95639.16;4990519;28;102064;-61
2023/08/06 03:05:06;;;;;;;2.00;1.90;;;;;;;14.30;100.00;95629.25;4990338;28;105669;-61
2023/08/06 03:07:37;;;;;;;2.23;1.90;;;;;;;14.27;100.00;95629.81;4989719;28;105053;-60
2023/08/06 03:10:12;;;;;;;2.27;2.07;;;;;;;14.25;100.00;95632.00;4990151;28;101927;-60
2023/08/06 03:12:39;;;;;;;4.40;2.00;;;;;;;14.24;100.00;95633.09;4990312;28;105284;-60
2023/08/06 03:15:07;;;;;;;3.10;2.10;;;;;;;14.25;100.00;95629.34;4989412;28;104596;-60
2023/08/06 03:17:36;;;;;;;2.33;2.13;;;;;;;14.24;100.00;95628.56;4993636;28;102421;-60
2023/08/06 03:20:06;;;;;;;3.67;2.50;;;;;;;14.23;100.00;95623.50;4989260;28;105431;-60
2023/08/06 03:22:34;;;;;;;2.50;2.30;;;;;;;14.22;100.00;95627.25;4989942;28;102150;-60
2023/08/06 03:25:01;;;;;;;2.67;2.50;;;;;;;14.20;100.00;95613.38;4990040;28;105355;-60
2023/08/06 03:27:28;;;;;;;2.70;2.47;;;;;;;14.17;100.00;95612.03;4989257;28;105697;-60
2023/08/06 03:29:55;;;;;;;2.60;2.40;;;;;;;14.15;100.00;95606.19;4989860;28;102001;-60
2023/08/06 03:32:24;;;;;;;2.63;2.43;;;;;;;14.14;100.00;95603.81;4989759;28;105207;-60
2023/08/06 03:34:52;;;;;;;3.03;2.73;;;;;;;14.09;100.00;95607.38;4990583;28;102727;-60
2023/08/06 03:37:22;;;;;;;2.40;2.30;;;;;;;14.06;100.00;95613.28;4989536;28;102076;-60
2023/08/06 03:39:50;;;;;;;2.73;2.53;;;;;;;14.03;100.00;95597.03;4992542;28;104490;-60
2023/08/06 03:42:18;;;;;;;2.83;2.50;;;;;;;14.06;100.00;95607.94;4989863;28;102196;-60
2023/08/06 03:44:45;;;;;;;3.27;2.70;;;;;;;14.03;100.00;95603.19;4989539;28;104909;-60
2023/08/06 03:47:12;;;;;;;2.97;2.77;;;;;;;14.02;100.00;95606.13;4990368;28;103183;-60
2023/08/06 03:49:39;;;;;;;3.23;2.83;;;;;;;14.05;100.00;95611.69;4989691;28;101965;-60
2023/08/06 03:52:10;;;;;;;3.17;2.57;;;;;;;14.04;100.00;95604.75;4989486;28;105360;-60
2023/08/06 03:54:36;;;;;;;3.57;2.87;;;;;;;13.96;100.00;95613.41;4988996;28;105460;-61
2023/08/06 03:57:04;;;;;;;3.60;2.73;;;;;;;13.92;100.00;95606.28;4989242;28;102049;-60
2023/08/06 03:59:32;;;;;;;2.77;2.57;;;;;;;13.89;100.00;95604.97;4989152;28;105126;-61
2023/08/06 04:01:59;;;;;;;2.93;2.50;;;;;;;13.89;100.00;95609.56;4993045;28;102075;-60
2023/08/06 04:04:26;;;;;;;2.87;2.67;;;;;;;13.90;100.00;95608.47;4989036;28;104942;-61
2023/08/06 04:06:53;;;;;;;2.90;2.43;;;;;;;13.90;100.00;95613.81;4988187;28;105346;-60
2023/08/06 04:09:24;;;;;;;3.47;2.60;;;;;;;13.87;100.00;95607.16;4990334;28;102144;-60
2023/08/06 04:11:51;;;;;;;2.77;2.53;;;;;;;13.89;100.00;95615.66;4989255;28;105189;-60
2023/08/06 04:14:18;;;;;;;3.03;2.73;;;;;;;13.85;100.00;95617.31;4988592;28;105438;-60
2023/08/06 04:16:45;;;;;;;2.93;2.57;;;;;;;13.82;100.00;95611.78;4989084;28;101912;-61
2023/08/06 04:19:11;;;;;;;5.23;4.20;;;;;;;13.78;100.00;95608.06;4989127;28;105263;-60
2023/08/06 04:21:38;;;;;;;4.07;2.47;;;;;;;13.98;100.00;95602.44;4993139;28;102562;-60
2023/08/06 04:24:05;;;;;;;2.80;2.60;;;;;;;13.99;100.00;95596.00;4989396;28;105301;-60
2023/08/06 04:26:33;;;;;;;2.77;2.40;;;;;;;14.00;100.00;95594.94;4988632;28;105429;-60
2023/08/06 04:29:00;;;;;;;2.60;2.40;;;;;;;13.93;100.00;95595.31;4990347;28;102306;-60
2023/08/06 04:31:30;;;;;;;2.30;2.10;;;;;;;13.94;100.00;95593.41;4988963;28;103848;-60
2023/08/06 04:33:57;;;;;;;2.50;2.30;;;;;;;13.95;100.00;95597.69;4988255;28;105549;-62
2023/08/06 04:36:24;;;;;;;3.43;2.47;;;;;;;13.95;100.00;95595.03;4990041;28;101920;-62
2023/08/06 04:38:51;;;;;;;2.17;2.00;;;;;;;13.97;100.00;95587.50;4988757;28;105309;-62
2023/08/06 04:41:18;;;;;;;2.97;2.20;;;;;;;14.00;100.00;95592.28;4988207;28;105358;-61
2023/08/06 04:43:46;;;;;;;2.63;2.17;;;;;;;14.06;100.00;95585.78;4992254;28;102023;-61
2023/08/06 04:46:14;;;;;;;2.30;2.20;;;;;;;14.00;100.00;95593.06;4987898;28;105281;-60
2023/08/06 04:48:41;;;;;;;3.23;1.80;;;;;;;14.05;100.00;95584.97;4988683;28;102424;-60
2023/08/06 04:51:08;;;;;;;2.07;1.87;;;;;;;13.99;100.00;95590.66;4988558;28;105897;-61
2023/08/06 04:53:35;;;;;;;2.77;1.77;;;;;;;13.98;100.00;95581.88;4988106;28;105800;-61
2023/08/06 04:56:01;;;;;;;2.47;1.77;;;;;;;13.98;100.00;95583.75;4988646;28;102056;-62
2023/08/06 04:58:28;;;;;;;2.10;1.77;;;;;;;14.01;100.00;95583.94;4989999;28;101787;-62
2023/08/06 05:00:57;;;;;;;1.50;1.40;;;;;;;14.05;100.00;95584.97;4989155;28;102868;-62
2023/08/06 05:03:23;;;;;;;1.60;1.50;;;;;;;14.06;100.00;95591.13;4988779;28;101995;-61
2023/08/06 05:05:50;;;;;;;1.60;1.50;;;;;;;14.03;100.00;95591.69;4976416;28;102526;-61
2023/08/06 05:08:18;;;;;;;2.27;1.63;;;;;;;14.07;100.00;95590.03;4969572;28;101996;-61
2023/08/06 05:10:45;;;;;;;2.23;1.47;;;;;;;14.09;100.00;95591.31;4970853;28;102528;-61
2023/08/06 05:13:12;;;;;;;1.40;1.40;;;;;;;14.15;100.00;95590.16;4970259;28;103074;-61
2023/08/06 05:15:42;;;;;;;1.67;1.50;;;;;;;14.19;100.00;95590.38;4969395;28;101972;-60
2023/08/06 05:18:10;;;;;;;2.10;1.43;;;;;;;14.23;100.00;95599.44;4973737;28;102405;-60
2023/08/06 05:20:38;;;;;;;1.30;1.23;;;;;;;14.31;100.00;95604.09;4971554;28;105374;-60
2023/08/06 05:23:05;;;;;;;1.43;1.33;;;;;;;14.38;100.00;95599.19;4972744;28;102096;-60
2023/08/06 05:25:32;;;;;;;1.67;1.57;;;;;;;14.46;100.00;95595.81;4972847;28;105655;-60
2023/08/06 05:27:59;;;;;;;1.70;1.60;;;;;;;14.52;100.00;95590.09;4976942;28;102970;-60
2023/08/06 05:30:26;;;;;;;5.03;1.50;;;;;;;14.59;100.00;95579.81;4973974;28;102420;-60
2023/08/06 05:32:53;;;;;;;1.73;1.50;;;;;;;14.62;100.00;95583.78;4972067;28;105420;-60
2023/08/06 05:35:22;;;;;;;1.40;1.30;;;;;;;14.68;100.00;95583.41;4973611;28;102038;-61
2023/08/06 05:37:49;;;;;;;1.50;1.40;;;;;;;14.73;100.00;95582.50;4973745;28;101872;-62
2023/08/06 05:40:16;;;;;;;1.50;1.40;;;;;;;14.78;100.00;95588.53;4971911;28;105492;-61
2023/08/06 05:42:42;;;;;;;1.63;1.53;;;;;;;14.88;100.00;95585.69;4972461;28;102081;-61
2023/08/06 05:45:11;;;;;;;1.63;1.53;;;;;;;14.92;100.00;95584.00;4973831;28;102404;-61
2023/08/06 05:47:37;;;;;;;1.90;1.63;;;;;;;14.97;100.00;95586.59;4971952;28;105372;-61
2023/08/06 05:50:05;;;;;;;1.50;1.30;;;;;;;14.95;100.00;95590.66;4977135;28;102037;-62
2023/08/06 05:52:33;;;;;;;1.93;1.40;;;;;;;14.97;100.00;95588.47;4971834;28;104000;-61
2023/08/06 05:55:00;;;;;;;1.40;1.30;;;;;;;14.99;100.00;95586.31;4972049;28;101916;-61
2023/08/06 05:57:27;;;;;;;1.67;1.57;;;;;;;15.02;100.00;95593.72;4973719;28;102583;-61
2023/08/06 05:59:53;;;;;;;1.47;1.37;;;;;;;15.00;100.00;95598.59;4971551;28;103544;-61
2023/08/06 06:02:20;;;;;;;1.67;1.57;;;;;;;14.99;100.00;95599.69;4972068;28;102017;-62
2023/08/06 06:04:47;;;;;;;1.23;1.23;;;;;;;15.09;100.00;95597.59;4973147;28;102399;-65
2023/08/06 06:07:14;;;;;;;1.80;1.57;;;;;;;15.04;100.00;95596.94;4973037;28;103036;-62
2023/08/06 06:09:43;;;;;;;1.43;1.33;;;;;;;15.11;100.00;95592.75;4975350;28;101916;-62
2023/08/06 06:12:10;;;;;;;1.63;1.53;;;;;;;15.20;100.00;95588.28;4972564;28;102585;-61
2023/08/06 06:14:36;;;;;;;1.87;1.57;;;;;;;15.28;100.00;95592.16;4973360;28;101932;-61
2023/08/06 06:17:04;;;;;;;1.50;1.40;;;;;;;15.35;100.00;95589.88;4971825;28;105312;-61
2023/08/06 06:19:30;;;;;;;1.70;1.60;;;;;;;15.42;100.00;95585.72;4971259;28;104439;-62
2023/08/06 06:21:58;;;;;;;1.60;1.50;;;;;;;15.48;100.00;95581.06;4972663;28;103437;-62
2023/08/06 06:24:24;;;;;;;1.50;1.40;;;;;;;15.50;100.00;95584.22;4971783;28;104912;-62
2023/08/06 06:26:53;;;;;;;1.87;1.40;;;;;;;15.50;100.00;95584.22;4970939;28;105934;-61
2023/08/06 06:29:19;;;;;;;1.60;1.40;;;;;;;15.52;100.00;95585.50;4972015;28;101887;-62
2023/08/06 06:31:46;;;;;;;1.40;1.07;;;;;;;15.58;100.00;95583.53;4974377;28;104002;-65
2023/08/06 06:34:13;;;;;;;1.40;1.30;;;;;;;15.59;100.00;95588.56;4971744;28;101956;-62
2023/08/06 06:36:40;;;;;;;3.40;1.20;;;;;;;15.63;100.00;95596.78;4971534;28;105102;-61
2023/08/06 06:39:08;;;;;;;1.27;1.17;;;;;;;15.68;100.00;95597.50;4970918;28;105535;-62
2023/08/06 06:41:34;;;;;;;1.40;1.30;;;;;;;15.69;100.00;95593.72;4971386;28;101984;-62
2023/08/06 06:44:11;;;;;;;1.20;1.10;;;;;;;15.72;100.00;95589.63;4971508;28;105236;-63
2023/08/06 06:46:38;;;;;;;1.30;1.20;;;;;;;15.75;100.00;95597.09;4970685;28;105163;-63
2023/08/06 06:49:05;;;;;;;2.03;1.40;;;;;;;15.78;100.00;95599.16;4971250;28;101779;-61
2023/08/06 06:51:32;;;;;;;1.03;1.00;;;;;;;15.85;100.00;95596.84;4971190;28;104970;-61
2023/08/06 06:53:59;;;;;;;1.30;1.20;;;;;;;15.86;100.00;95601.91;4974055;28;105654;-67
2023/08/06 06:56:26;;;;;;;1.27;1.17;;;;;;;15.91;100.00;95606.38;4971110;28;105065;-63
2023/08/06 06:58:53;;;;;;;1.93;1.30;;;;;;;15.89;100.00;95611.25;4970523;28;105566;-63
2023/08/06 07:01:21;;;;;;;1.67;1.30;;;;;;;15.94;100.00;95611.13;4971195;28;102258;-67
2023/08/06 07:03:48;;;;;;;1.43;1.20;;;;;;;16.02;100.00;95610.41;4971069;28;105411;-73
2023/08/06 07:06:15;;;;;;;1.30;1.20;;;;;;;15.99;100.00;95611.00;4970358;28;105671;-68
2023/08/06 07:08:42;;;;;;;1.10;1.10;;;;;;;16.01;100.00;95600.75;4970929;28;102031;-63
2023/08/06 07:11:09;;;;;;;1.13;1.03;;;;;;;16.03;100.00;95599.38;4970793;28;105393;-63
2023/08/06 07:13:36;;;;;;;2.13;1.20;;;;;;;16.10;100.00;95598.97;4970116;28;105643;-63
2023/08/06 07:16:03;;;;;;;3.10;1.20;;;;;;;16.12;100.00;95605.59;4974278;28;102025;-63
2023/08/06 07:18:31;;;;;;;1.20;1.10;;;;;;;16.15;100.00;95593.47;4971688;28;102633;-63
2023/08/06 07:20:58;;;;;;;1.20;1.10;;;;;;;16.17;100.00;95602.00;4969928;28;101823;-63
2023/08/06 07:23:26;;;;;;;1.10;1.00;;;;;;;16.21;100.00;95598.44;4954887;28;106085;-63
2023/08/06 07:25:53;;;;;;;1.43;1.33;;;;;;;16.31;100.00;95595.50;4970096;28;105121;-63
2023/08/06 07:28:20;;;;;;;1.53;1.23;;;;;;;16.40;100.00;95598.28;4970790;28;102019;-63
2023/08/06 07:32:08;;;;;;;1.30;1.20;;;;;;;16.53;100.00;95584.00;5071976;27;101586;-73
2023/08/06 07:34:35;;;;;;;1.43;1.10;;;;;;;16.57;100.00;95587.66;5066013;27;105423;-73
2023/08/06 07:37:01;;;;;;;1.40;1.30;;;;;;;16.56;100.00;95569.97;5066696;27;102056;-73
2023/08/06 07:39:29;;;;;;;1.93;1.13;;;;;;;16.72;100.00;95573.81;5066421;27;105333;-72
2023/08/06 07:41:56;;;;;;;0.97;0.97;;;;;;;16.75;100.00;95570.53;5066063;27;105494;-73
2023/08/06 07:44:23;;;;;;;1.47;1.37;;;;;;;16.69;100.00;95574.44;5066559;27;101959;-73
2023/08/06 07:46:50;;;;;;;1.57;1.00;;;;;;;16.62;100.00;95569.50;5066525;27;105157;-73
2023/08/06 07:49:19;;;;;;;1.20;1.10;;;;;;;16.62;100.00;95566.81;5065875;27;105966;-73
2023/08/06 07:51:46;;;;;;;2.27;1.27;;;;;;;16.65;100.00;95574.28;5069715;27;102026;-73
2023/08/06 07:54:12;;;;;;;0.87;0.87;;;;;;;16.47;100.00;95563.75;5065881;27;105785;-75
2023/08/06 07:56:39;;;;;;;1.40;1.30;;;;;;;16.36;100.00;95576.56;5067804;27;101901;-74
2023/08/06 07:59:06;;;;;;;1.30;1.20;;;;;;;16.42;100.00;95577.28;5066279;27;105510;-80
2023/08/06 08:01:33;;;;;;;0.90;0.90;;;;;;;16.38;100.00;95600.44;5065650;27;105607;-72
2023/08/06 08:04:00;;;;;;;1.60;0.90;;;;;;;16.21;100.00;95587.69;5066155;27;102094;-72
2023/08/06 08:06:28;;;;;;;1.17;1.00;;;;;;;16.14;100.00;95586.53;5067580;27;102592;-72
2023/08/06 08:08:55;;;;;;;1.67;1.07;;;;;;;16.12;100.00;95592.19;5065396;27;104234;-72
2023/08/06 08:11:22;;;;;;;1.30;0.97;;;;;;;16.04;100.00;95600.97;5067322;27;101796;-72
2023/08/06 08:13:49;;;;;;;1.27;0.93;;;;;;;15.90;100.00;95615.50;5070357;27;102968;-72
2023/08/06 08:16:16;;;;;;;1.73;1.07;;;;;;;15.90;100.00;95599.41;5099911;27;102305;-72
2023/08/06 08:18:43;;;;;;;2.23;1.00;;;;;;;15.90;100.00;95588.69;5066474;27;103017;-72
2023/08/06 08:21:10;;;;;;;2.20;1.20;;;;;;;16.10;100.00;95588.22;5064478;27;105600;-73
2023/08/06 08:23:39;;;;;;;1.90;1.10;;;;;;;15.85;100.00;95583.44;5065026;27;101997;-71
2023/08/06 08:26:06;;;;;;;1.07;1.03;;;;;;;15.98;100.00;95590.66;5099822;27;105576;-73
2023/08/06 08:28:33;;;;;;;1.20;1.10;;;;;;;16.04;100.00;95573.34;5066082;27;102869;-73
2023/08/06 08:30:59;;;;;;;0.90;0.90;;;;;;;16.11;100.00;95579.88;5064475;27;102242;-73
2023/08/06 08:33:26;;;;;;;1.20;1.10;;;;;;;16.16;100.00;95577.09;5064948;27;105460;-73
2023/08/06 08:35:53;;;;;;;0.93;0.80;;;;;;;16.20;100.00;95569.22;5069156;27;103149;-73
2023/08/06 08:38:20;;;;;;;3.20;2.47;;;;;;;16.24;100.00;95584.38;5064814;27;105598;-73
2023/08/06 08:40:53;;;;;;;1.60;0.80;;;;;;;16.35;100.00;95574.22;5065846;27;103195;-73
2023/08/06 08:43:22;;;;;;;0.80;0.80;;;;;;;16.39;100.00;95556.41;5052893;27;101722;-73
2023/08/06 08:45:51;;;;;;;2.10;1.57;;;;;;;16.61;100.00;95562.56;5051402;27;105635;-73
2023/08/06 08:48:20;;;;;;;1.23;1.00;;;;;;;16.71;100.00;95554.25;5051862;27;102913;-73
2023/08/06 08:50:49;;;;;;;2.00;1.13;;;;;;;16.60;100.00;95554.81;5085128;27;101902;-73
2023/08/06 08:53:17;;;;;;;1.17;1.17;;;;;;;16.57;100.00;95553.53;5050955;27;105590;-73
2023/08/06 08:55:47;;;;;;;1.87;1.23;;;;;;;16.62;100.00;95552.63;5050247;27;105627;-73
2023/08/06 08:58:16;;;;;;;1.40;1.30;;;;;;;16.67;100.00;95560.56;5269290;22;103410;-73
2023/08/06 09:00:43;;;;;;;1.80;1.20;;;;;;;16.82;100.00;95568.19;5001054;28;106033;-73
2023/08/06 09:03:11;;;;;;;1.00;0.97;;;;;;;16.90;100.00;95572.81;5010698;28;102092;-73
2023/08/06 09:05:44;;;;;;;1.90;1.10;;;;;;;16.69;100.00;95569.09;5010566;28;105217;-73
2023/08/06 09:08:16;;;;;;;1.03;0.60;;;;;;;16.74;100.00;95571.63;5011607;28;103039;-73
2023/08/06 09:10:44;;;;;;;1.50;1.40;;;;;;;16.73;100.00;95575.44;5010353;28;102316;-73
2023/08/06 09:13:12;;;;;;;1.13;0.80;;;;;;;16.78;100.00;95583.34;5010353;28;105374;-73
2023/08/06 09:15:40;;;;;;;3.50;0.73;;;;;;;16.68;100.00;95565.59;5009802;28;105437;-73
2023/08/06 09:18:11;;;;;;;0.60;0.50;;;;;;;16.99;100.00;95574.44;5010104;28;102012;-73
2023/08/06 09:20:39;;;;;;;1.13;0.60;;;;;;;17.05;100.00;95562.44;5012996;28;105628;-73
2023/08/06 09:23:08;;;;;;;1.87;0.70;;;;;;;16.97;100.00;95570.47;5010324;28;102038;-73
2023/08/06 09:25:39;;;;;;;0.60;0.50;;;;;;;17.08;100.00;95572.59;5010245;28;105502;-73
2023/08/06 09:28:06;;;;;;;0.67;0.50;;;;;;;17.33;100.00;95568.41;5009309;28;106331;-73
2023/08/06 09:30:35;;;;;;;0.60;0.60;;;;;;;17.42;100.00;95582.66;5010228;28;102173;-73
2023/08/06 09:33:03;;;;;;;1.30;0.70;;;;;;;17.47;100.00;95569.91;5010129;28;105681;-73
2023/08/06 09:35:31;;;;;;;0.70;0.40;;;;;;;17.25;100.00;95561.09;5009395;28;106004;-73
2023/08/06 09:38:08;;;;;;;0.97;0.87;;;;;;;17.32;100.00;95567.59;5009891;28;101966;-73
2023/08/06 09:40:35;;;;;;;1.77;0.70;;;;;;;17.24;100.00;95572.94;5010033;28;104133;-73
2023/08/06 09:43:03;;;;;;;0.67;0.67;;;;;;;17.15;100.00;95569.44;5012541;28;102111;-73
2023/08/06 09:45:33;;;;;;;0.90;0.40;;;;;;;17.19;100.00;95573.09;5009797;28;105176;-73
2023/08/06 09:48:01;;;;;;;3.40;0.60;;;;;;;17.00;100.00;95569.88;5010381;28;103148;-73
2023/08/06 09:50:31;;;;;;;1.67;0.50;;;;;;;16.87;100.00;95578.81;5009763;28;101888;-73
2023/08/06 09:52:59;;;;;;;0.80;0.40;;;;;;;16.70;100.00;95584.91;5009493;28;104680;-73
2023/08/06 09:55:27;;;;;;;1.37;0.40;;;;;;;16.62;100.00;95574.09;5008364;28;105141;-73
2023/08/06 09:57:54;;;;;;;0.83;0.40;;;;;;;16.62;100.00;95571.44;5021319;27;101865;-73
2023/08/06 10:00:22;;;;;;;1.07;0.50;;;;;;;16.62;100.00;95569.50;5033118;27;105068;-73
2023/08/06 10:02:51;;;;;;;0.30;0.30;;;;;;;16.75;100.00;95576.72;5036160;27;105043;-73
2023/08/06 10:05:19;;;;;;;1.57;0.40;;;;;;;16.88;100.00;95577.69;5033020;27;104154;-73
2023/08/06 10:07:48;;;;;;;0.30;0.30;;;;;;;16.95;100.00;95567.31;5032451;27;105452;-73
2023/08/06 10:10:15;;;;;;;0.50;0.50;;;;;;;17.03;100.00;95571.91;5032884;27;102173;-73
2023/08/06 10:12:48;;;;;;;0.30;0.30;;;;;;;17.19;100.00;95562.34;5032679;27;105767;-73
2023/08/06 10:15:19;;;;;;;1.10;0.50;;;;;;;17.19;100.00;95568.53;5032362;27;105355;-73
2023/08/06 10:17:48;;;;;;;0.50;0.30;;;;;;;17.56;100.00;95572.59;5032980;27;101866;-73
2023/08/06 10:20:15;;;;;;;0.70;0.40;;;;;;;17.73;100.00;95575.31;5032843;27;105365;-73
2023/08/06 10:22:45;;;;;;;1.40;0.30;;;;;;;18.23;100.00;95565.66;5032061;27;105254;-73
2023/08/06 10:25:18;;;;;;;1.60;0.30;;;;;;;18.01;100.00;95571.22;5036200;27;102036;-73
2023/08/06 10:27:56;;;;;;;0.73;0.40;;;;;;;17.87;100.00;95551.75;5032076;27;104439;-73
2023/08/06 10:30:24;;;;;;;0.27;0.27;;;;;;;17.77;100.00;95568.19;5032692;27;101920;-73
2023/08/06 10:32:52;;;;;;;1.43;0.20;;;;;;;17.71;100.00;95575.63;5032522;27;105403;-73
2023/08/06 10:35:30;;;;;;;0.70;0.30;;;;;;;17.71;100.00;95572.94;5031948;27;105726;-73
2023/08/06 10:38:00;;;;;;;0.20;0.20;;;;;;;17.62;100.00;95580.22;5032470;27;102071;-73
2023/08/06 10:40:30;;;;;;;0.97;0.30;;;;;;;17.71;100.00;95585.59;5032583;27;104835;-73
2023/08/06 10:43:00;;;;;;;2.30;0.20;;;;;;;17.79;100.00;95576.75;5032045;27;105383;-73
2023/08/06 10:45:28;;;;;;;0.30;0.30;;;;;;;17.64;100.00;95586.06;5032485;27;102279;-73
2023/08/06 10:47:57;;;;;;;0.30;0.30;;;;;;;17.54;100.00;95582.88;5035209;27;105868;-73
2023/08/06 10:50:24;;;;;;;1.00;0.20;;;;;;;17.55;100.00;95579.84;5032295;27;102213;-73
2023/08/06 10:52:52;;;;;;;0.70;0.30;;;;;;;17.79;100.00;95582.13;5032290;27;105342;-73
2023/08/06 10:55:26;;;;;;;0.30;0.27;;;;;;;17.75;100.00;95584.66;5031569;27;105665;-73
2023/08/06 10:57:55;;;;;;;0.50;0.30;;;;;;;17.62;100.00;95582.09;5050180;27;102023;-73
2023/08/06 11:00:23;;;;;;;1.63;0.30;;;;;;;17.39;100.00;95586.00;5050764;27;102915;-73
2023/08/06 11:02:51;;;;;;;0.20;0.20;;;;;;;17.38;100.00;95595.13;5031560;27;105378;-73
2023/08/06 11:05:18;;;;;;;1.47;0.30;;;;;;;17.26;100.00;95584.16;5031795;27;102048;-73
2023/08/06 11:07:45;;;;;;;0.50;0.20;;;;;;;17.12;100.00;95594.25;5015424;27;105470;-73
2023/08/06 11:10:13;;;;;;;0.43;0.10;;;;;;;17.29;100.00;95594.31;5053171;27;102729;-73
2023/08/06 11:12:41;;;;;;;0.47;0.17;;;;;;;17.26;100.00;95611.03;5032095;27;105754;-73
2023/08/06 11:15:11;;;;;;;0.23;0.23;;;;;;;17.20;100.00;95628.41;5031392;27;104820;-73
2023/08/06 11:17:41;;;;;;;0.90;0.30;;;;;;;17.09;100.00;95602.91;5031693;27;102071;-73
2023/08/06 11:20:09;;;;;;;0.63;0.30;;;;;;;17.06;100.00;95611.63;5032003;27;105550;-73
2023/08/06 11:22:37;;;;;;;0.50;0.40;;;;;;;16.90;100.00;95672.19;5031332;27;105524;-73